sensor_id;sensor_type;location;lat;lon;timestamp;temperature;humidity
30983;DHT22;17660;52.578;13.288;2023-06-14T00:02:21;19.10;65.50
30983;DHT22;17660;52.578;13.288;2023-06-14T00:04:48;19.00;65.80
30983;DHT22;17660;52.578;13.288;2023-06-14T00:07:17;18.90;66.10
30983;DHT22;17660;52.578;13.288;2023-06-14T00:09:45;18.80;66.70
30983;DHT22;17660;52.578;13.288;2023-06-14T00:12:11;18.80;66.40
30983;DHT22;17660;52.578;13.288;2023-06-14T00:14:38;18.80;66.50
30983;DHT22;17660;52.578;13.288;2023-06-14T00:17:05;18.90;66.60
30983;DHT22;17660;52.578;13.288;2023-06-14T00:19:33;18.90;66.60
30983;DHT22;17660;52.578;13.288;2023-06-14T00:22:03;18.80;66.90
30983;DHT22;17660;52.578;13.288;2023-06-14T00:24:30;18.80;67.00
30983;DHT22;17660;52.578;13.288;2023-06-14T00:26:56;18.80;67.00
30983;DHT22;17660;52.578;13.288;2023-06-14T00:29:23;18.80;67.20
30983;DHT22;17660;52.578;13.288;2023-06-14T00:31:50;18.80;67.60
30983;DHT22;17660;52.578;13.288;2023-06-14T00:34:16;18.70;67.50
30983;DHT22;17660;52.578;13.288;2023-06-14T00:36:43;18.70;67.50
30983;DHT22;17660;52.578;13.288;2023-06-14T00:39:10;18.70;67.90
30983;DHT22;17660;52.578;13.288;2023-06-14T00:41:37;18.70;67.80
30983;DHT22;17660;52.578;13.288;2023-06-14T00:44:04;18.70;68.00
30983;DHT22;17660;52.578;13.288;2023-06-14T00:46:30;18.70;68.20
30983;DHT22;17660;52.578;13.288;2023-06-14T00:48:58;18.60;68.20
30983;DHT22;17660;52.578;13.288;2023-06-14T00:51:25;18.60;68.20
30983;DHT22;17660;52.578;13.288;2023-06-14T00:53:53;18.60;68.30
30983;DHT22;17660;52.578;13.288;2023-06-14T00:56:19;18.60;68.20
30983;DHT22;17660;52.578;13.288;2023-06-14T00:58:47;18.60;68.20
30983;DHT22;17660;52.578;13.288;2023-06-14T01:01:14;18.60;68.40
30983;DHT22;17660;52.578;13.288;2023-06-14T01:03:41;18.50;68.50
30983;DHT22;17660;52.578;13.288;2023-06-14T01:06:15;18.50;68.70
30983;DHT22;17660;52.578;13.288;2023-06-14T01:14:32;18.50;69.10
30983;DHT22;17660;52.578;13.288;2023-06-14T01:16:59;18.40;69.40
30983;DHT22;17660;52.578;13.288;2023-06-14T01:19:27;18.40;69.40
30983;DHT22;17660;52.578;13.288;2023-06-14T01:21:57;18.40;69.20
30983;DHT22;17660;52.578;13.288;2023-06-14T01:24:26;18.30;69.90
30983;DHT22;17660;52.578;13.288;2023-06-14T01:26:55;18.40;69.90
30983;DHT22;17660;52.578;13.288;2023-06-14T01:29:23;18.30;69.80
30983;DHT22;17660;52.578;13.288;2023-06-14T01:31:52;18.30;70.00
30983;DHT22;17660;52.578;13.288;2023-06-14T01:34:19;18.30;70.00
30983;DHT22;17660;52.578;13.288;2023-06-14T01:36:46;18.20;70.10
30983;DHT22;17660;52.578;13.288;2023-06-14T01:39:14;18.20;70.30
30983;DHT22;17660;52.578;13.288;2023-06-14T01:41:41;18.20;70.10
30983;DHT22;17660;52.578;13.288;2023-06-14T01:44:09;18.20;70.60
30983;DHT22;17660;52.578;13.288;2023-06-14T01:46:36;18.10;70.50
30983;DHT22;17660;52.578;13.288;2023-06-14T01:49:03;18.10;70.60
30983;DHT22;17660;52.578;13.288;2023-06-14T01:51:30;18.10;70.60
30983;DHT22;17660;52.578;13.288;2023-06-14T01:53:57;18.10;70.90
30983;DHT22;17660;52.578;13.288;2023-06-14T01:56:24;18.10;71.00
30983;DHT22;17660;52.578;13.288;2023-06-14T01:58:53;18.10;70.90
30983;DHT22;17660;52.578;13.288;2023-06-14T02:01:20;18.00;71.00
30983;DHT22;17660;52.578;13.288;2023-06-14T02:03:47;18.00;71.00
30983;DHT22;17660;52.578;13.288;2023-06-14T02:06:15;18.00;71.10
30983;DHT22;17660;52.578;13.288;2023-06-14T02:08:42;18.00;71.20
30983;DHT22;17660;52.578;13.288;2023-06-14T02:11:09;18.00;71.00
30983;DHT22;17660;52.578;13.288;2023-06-14T02:13:35;17.90;71.00
30983;DHT22;17660;52.578;13.288;2023-06-14T02:16:02;17.90;71.20
30983;DHT22;17660;52.578;13.288;2023-06-14T02:18:29;17.80;71.30
30983;DHT22;17660;52.578;13.288;2023-06-14T02:20:56;17.80;71.50
30983;DHT22;17660;52.578;13.288;2023-06-14T02:23:22;17.80;71.70
30983;DHT22;17660;52.578;13.288;2023-06-14T02:25:49;17.70;71.90
30983;DHT22;17660;52.578;13.288;2023-06-14T02:28:16;17.70;71.90
30983;DHT22;17660;52.578;13.288;2023-06-14T02:30:43;17.70;72.00
30983;DHT22;17660;52.578;13.288;2023-06-14T02:33:09;17.60;72.20
30983;DHT22;17660;52.578;13.288;2023-06-14T02:35:39;17.60;72.30
30983;DHT22;17660;52.578;13.288;2023-06-14T02:38:07;17.50;72.60
30983;DHT22;17660;52.578;13.288;2023-06-14T02:40:33;17.50;72.60
30983;DHT22;17660;52.578;13.288;2023-06-14T02:43:00;17.50;72.70
30983;DHT22;17660;52.578;13.288;2023-06-14T02:45:28;17.40;72.70
30983;DHT22;17660;52.578;13.288;2023-06-14T02:47:55;17.40;72.90
30983;DHT22;17660;52.578;13.288;2023-06-14T02:50:22;17.40;72.80
30983;DHT22;17660;52.578;13.288;2023-06-14T02:52:50;17.40;72.70
30983;DHT22;17660;52.578;13.288;2023-06-14T02:55:17;17.40;72.80
30983;DHT22;17660;52.578;13.288;2023-06-14T02:57:44;17.40;72.90
30983;DHT22;17660;52.578;13.288;2023-06-14T03:00:10;17.40;72.90
30983;DHT22;17660;52.578;13.288;2023-06-14T03:02:40;17.40;73.10
30983;DHT22;17660;52.578;13.288;2023-06-14T03:05:09;17.40;73.30
30983;DHT22;17660;52.578;13.288;2023-06-14T03:07:36;17.30;73.30
30983;DHT22;17660;52.578;13.288;2023-06-14T03:10:08;17.30;73.50
30983;DHT22;17660;52.578;13.288;2023-06-14T03:12:35;17.30;73.70
30983;DHT22;17660;52.578;13.288;2023-06-14T03:15:03;17.30;73.90
30983;DHT22;17660;52.578;13.288;2023-06-14T03:17:30;17.20;74.10
30983;DHT22;17660;52.578;13.288;2023-06-14T03:20:00;17.20;74.20
30983;DHT22;17660;52.578;13.288;2023-06-14T03:22:27;17.20;74.30
30983;DHT22;17660;52.578;13.288;2023-06-14T03:24:55;17.20;74.40
30983;DHT22;17660;52.578;13.288;2023-06-14T03:27:21;17.20;74.30
30983;DHT22;17660;52.578;13.288;2023-06-14T03:29:48;17.20;74.30
30983;DHT22;17660;52.578;13.288;2023-06-14T03:32:14;17.20;74.30
30983;DHT22;17660;52.578;13.288;2023-06-14T03:34:41;17.20;74.40
30983;DHT22;17660;52.578;13.288;2023-06-14T03:37:08;17.20;74.60
30983;DHT22;17660;52.578;13.288;2023-06-14T03:39:35;17.20;74.70
30983;DHT22;17660;52.578;13.288;2023-06-14T03:42:03;17.20;75.00
30983;DHT22;17660;52.578;13.288;2023-06-14T03:44:30;17.20;75.20
30983;DHT22;17660;52.578;13.288;2023-06-14T03:46:56;17.20;75.20
30983;DHT22;17660;52.578;13.288;2023-06-14T03:49:23;17.10;75.30
30983;DHT22;17660;52.578;13.288;2023-06-14T03:51:50;17.10;75.40
30983;DHT22;17660;52.578;13.288;2023-06-14T03:54:18;17.20;75.50
30983;DHT22;17660;52.578;13.288;2023-06-14T03:57:04;17.20;75.70
30983;DHT22;17660;52.578;13.288;2023-06-14T03:59:32;17.20;75.80
30983;DHT22;17660;52.578;13.288;2023-06-14T04:01:59;17.30;75.80
30983;DHT22;17660;52.578;13.288;2023-06-14T04:04:25;17.30;75.90
30983;DHT22;17660;52.578;13.288;2023-06-14T04:06:55;17.30;75.80
30983;DHT22;17660;52.578;13.288;2023-06-14T04:09:27;17.30;76.00
30983;DHT22;17660;52.578;13.288;2023-06-14T04:11:53;17.30;76.10
30983;DHT22;17660;52.578;13.288;2023-06-14T04:14:20;17.30;76.00
30983;DHT22;17660;52.578;13.288;2023-06-14T04:16:47;17.30;76.20
30983;DHT22;17660;52.578;13.288;2023-06-14T04:19:14;17.30;76.30
30983;DHT22;17660;52.578;13.288;2023-06-14T04:21:41;17.30;76.20
30983;DHT22;17660;52.578;13.288;2023-06-14T04:24:08;17.40;76.50
30983;DHT22;17660;52.578;13.288;2023-06-14T04:26:41;17.30;76.40
30983;DHT22;17660;52.578;13.288;2023-06-14T04:29:07;17.40;76.50
30983;DHT22;17660;52.578;13.288;2023-06-14T04:31:34;17.40;76.70
30983;DHT22;17660;52.578;13.288;2023-06-14T04:34:03;17.40;76.80
30983;DHT22;17660;52.578;13.288;2023-06-14T04:36:32;17.40;77.20
30983;DHT22;17660;52.578;13.288;2023-06-14T04:39:01;17.40;77.40
30983;DHT22;17660;52.578;13.288;2023-06-14T04:41:32;17.50;77.00
30983;DHT22;17660;52.578;13.288;2023-06-14T04:43:59;17.50;77.20
30983;DHT22;17660;52.578;13.288;2023-06-14T04:46:28;17.50;77.10
30983;DHT22;17660;52.578;13.288;2023-06-14T04:48:55;17.50;77.20
30983;DHT22;17660;52.578;13.288;2023-06-14T04:51:23;17.60;77.60
30983;DHT22;17660;52.578;13.288;2023-06-14T04:53:56;17.60;77.60
30983;DHT22;17660;52.578;13.288;2023-06-14T04:56:24;17.60;77.70
30983;DHT22;17660;52.578;13.288;2023-06-14T04:58:52;17.70;77.60
30983;DHT22;17660;52.578;13.288;2023-06-14T05:01:20;17.60;78.10
30983;DHT22;17660;52.578;13.288;2023-06-14T05:03:47;17.70;77.90
30983;DHT22;17660;52.578;13.288;2023-06-14T05:06:16;17.70;78.30
30983;DHT22;17660;52.578;13.288;2023-06-14T05:08:44;17.70;78.30
30983;DHT22;17660;52.578;13.288;2023-06-14T05:11:10;17.70;78.20
30983;DHT22;17660;52.578;13.288;2023-06-14T05:13:37;17.80;78.60
30983;DHT22;17660;52.578;13.288;2023-06-14T05:16:04;17.70;78.50
30983;DHT22;17660;52.578;13.288;2023-06-14T05:18:31;17.80;78.20
30983;DHT22;17660;52.578;13.288;2023-06-14T05:20:57;17.90;78.40
30983;DHT22;17660;52.578;13.288;2023-06-14T05:23:24;17.90;78.00
30983;DHT22;17660;52.578;13.288;2023-06-14T05:25:50;17.90;78.30
30983;DHT22;17660;52.578;13.288;2023-06-14T05:28:17;17.90;78.50
30983;DHT22;17660;52.578;13.288;2023-06-14T05:30:44;17.80;79.40
30983;DHT22;17660;52.578;13.288;2023-06-14T05:33:10;17.80;79.20
30983;DHT22;17660;52.578;13.288;2023-06-14T05:35:37;17.80;80.40
30983;DHT22;17660;52.578;13.288;2023-06-14T05:38:04;17.90;79.10
30983;DHT22;17660;52.578;13.288;2023-06-14T05:40:32;17.80;80.50
30983;DHT22;17660;52.578;13.288;2023-06-14T05:42:58;17.90;79.90
30983;DHT22;17660;52.578;13.288;2023-06-14T05:45:25;18.00;80.10
30983;DHT22;17660;52.578;13.288;2023-06-14T05:47:52;18.00;79.50
30983;DHT22;17660;52.578;13.288;2023-06-14T05:50:21;18.20;79.60
30983;DHT22;17660;52.578;13.288;2023-06-14T05:52:47;18.10;79.90
30983;DHT22;17660;52.578;13.288;2023-06-14T05:55:15;18.10;81.00
30983;DHT22;17660;52.578;13.288;2023-06-14T05:57:42;18.20;81.60
30983;DHT22;17660;52.578;13.288;2023-06-14T06:00:09;18.20;80.20
30983;DHT22;17660;52.578;13.288;2023-06-14T06:02:37;18.30;79.50
30983;DHT22;17660;52.578;13.288;2023-06-14T06:05:04;18.40;79.10
30983;DHT22;17660;52.578;13.288;2023-06-14T06:07:32;18.40;79.50
30983;DHT22;17660;52.578;13.288;2023-06-14T06:10:03;18.40;79.60
30983;DHT22;17660;52.578;13.288;2023-06-14T06:12:29;18.50;79.90
30983;DHT22;17660;52.578;13.288;2023-06-14T06:14:56;18.40;80.10
30983;DHT22;17660;52.578;13.288;2023-06-14T06:17:23;18.40;80.00
30983;DHT22;17660;52.578;13.288;2023-06-14T06:19:49;18.40;79.90
30983;DHT22;17660;52.578;13.288;2023-06-14T06:22:16;18.40;80.10
30983;DHT22;17660;52.578;13.288;2023-06-14T06:24:43;18.40;80.60
30983;DHT22;17660;52.578;13.288;2023-06-14T06:27:11;18.40;80.60
30983;DHT22;17660;52.578;13.288;2023-06-14T06:29:39;18.50;80.30
30983;DHT22;17660;52.578;13.288;2023-06-14T06:32:05;18.50;80.60
30983;DHT22;17660;52.578;13.288;2023-06-14T06:34:32;18.50;81.10
30983;DHT22;17660;52.578;13.288;2023-06-14T06:36:59;18.50;80.80
30983;DHT22;17660;52.578;13.288;2023-06-14T06:39:26;18.60;81.70
30983;DHT22;17660;52.578;13.288;2023-06-14T06:41:53;18.60;81.20
30983;DHT22;17660;52.578;13.288;2023-06-14T06:44:20;18.60;81.20
30983;DHT22;17660;52.578;13.288;2023-06-14T06:46:46;18.60;81.10
30983;DHT22;17660;52.578;13.288;2023-06-14T06:49:13;18.70;80.70
30983;DHT22;17660;52.578;13.288;2023-06-14T06:51:41;18.70;80.90
30983;DHT22;17660;52.578;13.288;2023-06-14T06:54:08;18.70;81.00
30983;DHT22;17660;52.578;13.288;2023-06-14T06:56:35;18.70;81.60
30983;DHT22;17660;52.578;13.288;2023-06-14T06:59:02;18.70;80.80
30983;DHT22;17660;52.578;13.288;2023-06-14T07:01:29;18.80;80.60
30983;DHT22;17660;52.578;13.288;2023-06-14T07:03:55;18.90;80.00
30983;DHT22;17660;52.578;13.288;2023-06-14T07:06:23;18.90;80.60
30983;DHT22;17660;52.578;13.288;2023-06-14T07:08:53;18.90;80.70
30983;DHT22;17660;52.578;13.288;2023-06-14T07:11:20;18.90;80.50
30983;DHT22;17660;52.578;13.288;2023-06-14T07:13:47;19.00;81.10
30983;DHT22;17660;52.578;13.288;2023-06-14T07:16:14;19.00;80.30
30983;DHT22;17660;52.578;13.288;2023-06-14T07:18:41;19.10;80.10
30983;DHT22;17660;52.578;13.288;2023-06-14T07:21:07;19.10;80.80
30983;DHT22;17660;52.578;13.288;2023-06-14T07:23:34;19.10;79.60
30983;DHT22;17660;52.578;13.288;2023-06-14T07:26:01;19.10;79.80
30983;DHT22;17660;52.578;13.288;2023-06-14T07:28:29;19.10;80.20
30983;DHT22;17660;52.578;13.288;2023-06-14T07:30:56;19.10;80.10
30983;DHT22;17660;52.578;13.288;2023-06-14T07:33:22;19.20;79.80
30983;DHT22;17660;52.578;13.288;2023-06-14T07:35:49;19.20;79.40
30983;DHT22;17660;52.578;13.288;2023-06-14T07:38:17;19.20;80.00
30983;DHT22;17660;52.578;13.288;2023-06-14T07:40:43;19.30;80.20
30983;DHT22;17660;52.578;13.288;2023-06-14T07:43:10;19.30;80.60
30983;DHT22;17660;52.578;13.288;2023-06-14T07:45:37;19.30;79.90
30983;DHT22;17660;52.578;13.288;2023-06-14T07:48:04;19.40;79.80
30983;DHT22;17660;52.578;13.288;2023-06-14T07:50:30;19.40;80.20
30983;DHT22;17660;52.578;13.288;2023-06-14T07:52:57;19.50;79.70
30983;DHT22;17660;52.578;13.288;2023-06-14T07:55:24;19.50;80.50
30983;DHT22;17660;52.578;13.288;2023-06-14T07:57:51;19.70;81.10
30983;DHT22;17660;52.578;13.288;2023-06-14T08:00:19;19.70;80.00
30983;DHT22;17660;52.578;13.288;2023-06-14T08:02:46;19.80;78.90
30983;DHT22;17660;52.578;13.288;2023-06-14T08:05:13;19.90;78.00
30983;DHT22;17660;52.578;13.288;2023-06-14T08:07:41;20.00;78.90
30983;DHT22;17660;52.578;13.288;2023-06-14T08:10:08;20.10;78.10
30983;DHT22;17660;52.578;13.288;2023-06-14T08:12:35;20.10;76.70
30983;DHT22;17660;52.578;13.288;2023-06-14T08:15:03;20.20;76.10
30983;DHT22;17660;52.578;13.288;2023-06-14T08:17:39;20.20;77.00
30983;DHT22;17660;52.578;13.288;2023-06-14T08:20:07;20.40;76.30
30983;DHT22;17660;52.578;13.288;2023-06-14T08:22:34;20.50;75.30
30983;DHT22;17660;52.578;13.288;2023-06-14T08:25:03;20.60;74.00
30983;DHT22;17660;52.578;13.288;2023-06-14T08:27:30;20.60;75.90
30983;DHT22;17660;52.578;13.288;2023-06-14T08:29:57;20.70;74.10
30983;DHT22;17660;52.578;13.288;2023-06-14T08:32:24;20.70;73.70
30983;DHT22;17660;52.578;13.288;2023-06-14T08:34:51;20.70;72.50
30983;DHT22;17660;52.578;13.288;2023-06-14T08:37:31;20.90;73.40
30983;DHT22;17660;52.578;13.288;2023-06-14T08:39:57;21.00;72.30
30983;DHT22;17660;52.578;13.288;2023-06-14T08:42:24;21.20;72.00
30983;DHT22;17660;52.578;13.288;2023-06-14T08:44:58;21.30;72.00
30983;DHT22;17660;52.578;13.288;2023-06-14T08:47:25;21.30;70.80
30983;DHT22;17660;52.578;13.288;2023-06-14T08:49:53;21.30;71.80
30983;DHT22;17660;52.578;13.288;2023-06-14T08:52:23;21.50;71.80
30983;DHT22;17660;52.578;13.288;2023-06-14T08:54:56;21.60;70.80
30983;DHT22;17660;52.578;13.288;2023-06-14T08:57:24;21.60;69.60
30983;DHT22;17660;52.578;13.288;2023-06-14T08:59:52;21.50;68.80
30983;DHT22;17660;52.578;13.288;2023-06-14T09:02:19;21.50;69.30
30983;DHT22;17660;52.578;13.288;2023-06-14T09:04:48;21.50;69.90
30983;DHT22;17660;52.578;13.288;2023-06-14T09:07:18;21.40;69.10
30983;DHT22;17660;52.578;13.288;2023-06-14T09:09:45;21.40;69.40
30983;DHT22;17660;52.578;13.288;2023-06-14T09:12:32;21.40;70.30
30983;DHT22;17660;52.578;13.288;2023-06-14T09:14:58;21.40;69.00
30983;DHT22;17660;52.578;13.288;2023-06-14T09:17:26;21.40;70.90
30983;DHT22;17660;52.578;13.288;2023-06-14T09:19:55;21.40;70.70
30983;DHT22;17660;52.578;13.288;2023-06-14T09:22:21;21.40;69.80
30983;DHT22;17660;52.578;13.288;2023-06-14T09:24:48;21.40;70.30
30983;DHT22;17660;52.578;13.288;2023-06-14T09:27:15;21.40;69.10
30983;DHT22;17660;52.578;13.288;2023-06-14T09:29:42;21.50;70.40
30983;DHT22;17660;52.578;13.288;2023-06-14T09:32:08;21.50;70.50
30983;DHT22;17660;52.578;13.288;2023-06-14T09:34:35;21.60;70.00
30983;DHT22;17660;52.578;13.288;2023-06-14T09:37:02;21.50;68.40
30983;DHT22;17660;52.578;13.288;2023-06-14T09:39:29;21.60;69.20
30983;DHT22;17660;52.578;13.288;2023-06-14T09:41:56;21.70;68.80
30983;DHT22;17660;52.578;13.288;2023-06-14T09:44:22;21.80;68.00
30983;DHT22;17660;52.578;13.288;2023-06-14T09:46:55;21.90;68.10
30983;DHT22;17660;52.578;13.288;2023-06-14T09:49:22;22.00;68.20
30983;DHT22;17660;52.578;13.288;2023-06-14T09:51:50;22.00;67.60
30983;DHT22;17660;52.578;13.288;2023-06-14T09:54:20;22.00;68.80
30983;DHT22;17660;52.578;13.288;2023-06-14T09:56:47;22.10;68.00
30983;DHT22;17660;52.578;13.288;2023-06-14T09:59:16;22.20;68.20
30983;DHT22;17660;52.578;13.288;2023-06-14T10:01:44;22.50;68.00
30983;DHT22;17660;52.578;13.288;2023-06-14T10:04:11;22.60;66.30
30983;DHT22;17660;52.578;13.288;2023-06-14T10:06:40;22.50;66.40
30983;DHT22;17660;52.578;13.288;2023-06-14T10:09:08;22.50;65.80
30983;DHT22;17660;52.578;13.288;2023-06-14T10:11:35;22.50;67.30
30983;DHT22;17660;52.578;13.288;2023-06-14T10:14:03;22.50;66.00
30983;DHT22;17660;52.578;13.288;2023-06-14T10:16:33;22.40;65.60
30983;DHT22;17660;52.578;13.288;2023-06-14T10:19:46;22.30;65.90
30983;DHT22;17660;52.578;13.288;2023-06-14T10:24:19;22.20;65.40
30983;DHT22;17660;52.578;13.288;2023-06-14T10:26:54;22.10;65.10
30983;DHT22;17660;52.578;13.288;2023-06-14T10:29:25;22.20;66.60
30983;DHT22;17660;52.578;13.288;2023-06-14T10:31:56;22.20;66.20
30983;DHT22;17660;52.578;13.288;2023-06-14T10:39:52;22.30;65.90
30983;DHT22;17660;52.578;13.288;2023-06-14T10:42:23;22.40;65.50
30983;DHT22;17660;52.578;13.288;2023-06-14T10:47:23;22.80;66.20
30983;DHT22;17660;52.578;13.288;2023-06-14T10:49:51;23.00;63.90
30983;DHT22;17660;52.578;13.288;2023-06-14T10:52:23;23.20;63.30
30983;DHT22;17660;52.578;13.288;2023-06-14T10:57:27;23.70;61.80
30983;DHT22;17660;52.578;13.288;2023-06-14T10:59:54;23.90;62.00
30983;DHT22;17660;52.578;13.288;2023-06-14T11:04:52;24.20;60.60
30983;DHT22;17660;52.578;13.288;2023-06-14T11:09:56;24.40;60.70
30983;DHT22;17660;52.578;13.288;2023-06-14T11:12:27;24.50;58.80
30983;DHT22;17660;52.578;13.288;2023-06-14T11:14:54;24.50;58.90
30983;DHT22;17660;52.578;13.288;2023-06-14T11:17:21;24.60;59.40
30983;DHT22;17660;52.578;13.288;2023-06-14T11:19:48;24.90;58.90
30983;DHT22;17660;52.578;13.288;2023-06-14T11:22:14;25.00;58.80
30983;DHT22;17660;52.578;13.288;2023-06-14T11:24:42;25.00;56.10
30983;DHT22;17660;52.578;13.288;2023-06-14T11:27:09;24.60;56.20
30983;DHT22;17660;52.578;13.288;2023-06-14T11:29:35;24.50;58.00
30983;DHT22;17660;52.578;13.288;2023-06-14T11:32:02;24.60;57.10
30983;DHT22;17660;52.578;13.288;2023-06-14T11:34:32;24.90;57.50
30983;DHT22;17660;52.578;13.288;2023-06-14T11:36:59;25.10;56.00
30983;DHT22;17660;52.578;13.288;2023-06-14T11:39:27;25.20;56.80
30983;DHT22;17660;52.578;13.288;2023-06-14T11:41:54;25.30;55.10
30983;DHT22;17660;52.578;13.288;2023-06-14T11:44:21;25.10;54.90
30983;DHT22;17660;52.578;13.288;2023-06-14T11:46:49;25.10;55.10
30983;DHT22;17660;52.578;13.288;2023-06-14T11:49:17;24.90;55.00
30983;DHT22;17660;52.578;13.288;2023-06-14T11:51:43;24.90;56.10
30983;DHT22;17660;52.578;13.288;2023-06-14T11:54:11;25.20;56.30
30983;DHT22;17660;52.578;13.288;2023-06-14T11:56:38;25.20;56.40
30983;DHT22;17660;52.578;13.288;2023-06-14T11:59:05;25.30;55.80
30983;DHT22;17660;52.578;13.288;2023-06-14T12:01:35;25.40;55.20
30983;DHT22;17660;52.578;13.288;2023-06-14T12:04:01;25.10;55.80
30983;DHT22;17660;52.578;13.288;2023-06-14T12:06:30;25.10;55.50
30983;DHT22;17660;52.578;13.288;2023-06-14T12:09:02;25.00;55.70
30983;DHT22;17660;52.578;13.288;2023-06-14T12:11:34;24.90;54.20
30983;DHT22;17660;52.578;13.288;2023-06-14T12:14:03;25.40;54.10
30983;DHT22;17660;52.578;13.288;2023-06-14T12:16:30;25.90;53.70
30983;DHT22;17660;52.578;13.288;2023-06-14T12:19:00;26.00;52.50
30983;DHT22;17660;52.578;13.288;2023-06-14T12:21:27;26.00;53.40
30983;DHT22;17660;52.578;13.288;2023-06-14T12:23:55;26.00;52.10
30983;DHT22;17660;52.578;13.288;2023-06-14T12:26:22;25.90;52.30
30983;DHT22;17660;52.578;13.288;2023-06-14T12:28:51;26.00;54.00
30983;DHT22;17660;52.578;13.288;2023-06-14T12:31:18;25.90;53.70
30983;DHT22;17660;52.578;13.288;2023-06-14T12:33:46;26.00;54.30
30983;DHT22;17660;52.578;13.288;2023-06-14T12:36:15;26.30;53.20
30983;DHT22;17660;52.578;13.288;2023-06-14T12:38:43;26.40;53.40
30983;DHT22;17660;52.578;13.288;2023-06-14T12:41:09;26.40;52.40
30983;DHT22;17660;52.578;13.288;2023-06-14T12:43:36;26.50;52.50
30983;DHT22;17660;52.578;13.288;2023-06-14T12:46:03;26.40;52.40
30983;DHT22;17660;52.578;13.288;2023-06-14T12:48:29;26.50;52.40
30983;DHT22;17660;52.578;13.288;2023-06-14T12:50:57;26.30;51.20
30983;DHT22;17660;52.578;13.288;2023-06-14T12:53:24;26.40;51.10
30983;DHT22;17660;52.578;13.288;2023-06-14T12:55:51;26.40;52.20
30983;DHT22;17660;52.578;13.288;2023-06-14T12:58:17;26.50;50.60
30983;DHT22;17660;52.578;13.288;2023-06-14T13:00:46;26.70;52.30
30983;DHT22;17660;52.578;13.288;2023-06-14T13:03:13;26.80;51.20
30983;DHT22;17660;52.578;13.288;2023-06-14T13:05:40;26.80;51.30
30983;DHT22;17660;52.578;13.288;2023-06-14T13:08:07;27.00;50.20
30983;DHT22;17660;52.578;13.288;2023-06-14T13:10:35;27.00;51.30
30983;DHT22;17660;52.578;13.288;2023-06-14T13:13:01;26.80;53.00
30983;DHT22;17660;52.578;13.288;2023-06-14T13:15:28;27.10;52.30
30983;DHT22;17660;52.578;13.288;2023-06-14T13:17:55;26.90;52.90
30983;DHT22;17660;52.578;13.288;2023-06-14T13:20:22;27.00;50.10
30983;DHT22;17660;52.578;13.288;2023-06-14T13:22:49;27.00;52.30
30983;DHT22;17660;52.578;13.288;2023-06-14T13:25:16;27.00;52.50
30983;DHT22;17660;52.578;13.288;2023-06-14T13:27:43;27.00;51.20
30983;DHT22;17660;52.578;13.288;2023-06-14T13:30:10;26.90;53.40
30983;DHT22;17660;52.578;13.288;2023-06-14T13:32:37;26.90;49.20
30983;DHT22;17660;52.578;13.288;2023-06-14T13:35:04;26.90;51.10
30983;DHT22;17660;52.578;13.288;2023-06-14T13:37:30;26.90;50.50
30983;DHT22;17660;52.578;13.288;2023-06-14T13:39:57;26.80;48.80
30983;DHT22;17660;52.578;13.288;2023-06-14T13:42:24;26.50;48.20
30983;DHT22;17660;52.578;13.288;2023-06-14T13:44:51;26.30;48.20
30983;DHT22;17660;52.578;13.288;2023-06-14T13:47:19;26.20;48.90
30983;DHT22;17660;52.578;13.288;2023-06-14T13:49:46;26.00;48.30
30983;DHT22;17660;52.578;13.288;2023-06-14T13:52:13;26.10;48.10
30983;DHT22;17660;52.578;13.288;2023-06-14T13:54:40;26.30;49.70
30983;DHT22;17660;52.578;13.288;2023-06-14T13:57:06;26.30;49.20
30983;DHT22;17660;52.578;13.288;2023-06-14T13:59:34;26.30;49.30
30983;DHT22;17660;52.578;13.288;2023-06-14T14:02:01;26.20;48.90
30983;DHT22;17660;52.578;13.288;2023-06-14T14:04:28;26.10;48.40
30983;DHT22;17660;52.578;13.288;2023-06-14T14:06:55;26.10;49.00
30983;DHT22;17660;52.578;13.288;2023-06-14T14:09:22;25.90;49.90
30983;DHT22;17660;52.578;13.288;2023-06-14T14:11:48;25.70;51.50
30983;DHT22;17660;52.578;13.288;2023-06-14T14:14:15;25.40;51.20
30983;DHT22;17660;52.578;13.288;2023-06-14T14:16:42;25.20;51.60
30983;DHT22;17660;52.578;13.288;2023-06-14T14:19:08;25.00;51.70
30983;DHT22;17660;52.578;13.288;2023-06-14T14:21:35;24.70;53.60
30983;DHT22;17660;52.578;13.288;2023-06-14T14:24:02;24.60;52.70
30983;DHT22;17660;52.578;13.288;2023-06-14T14:26:29;24.50;53.30
30983;DHT22;17660;52.578;13.288;2023-06-14T14:28:55;24.40;53.40
30983;DHT22;17660;52.578;13.288;2023-06-14T14:31:22;24.40;53.10
30983;DHT22;17660;52.578;13.288;2023-06-14T14:33:49;24.20;53.70
30983;DHT22;17660;52.578;13.288;2023-06-14T14:36:16;24.20;54.90
30983;DHT22;17660;52.578;13.288;2023-06-14T14:38:43;24.20;53.60
30983;DHT22;17660;52.578;13.288;2023-06-14T14:41:09;24.10;54.00
30983;DHT22;17660;52.578;13.288;2023-06-14T14:43:36;24.10;54.50
30983;DHT22;17660;52.578;13.288;2023-06-14T14:46:03;24.10;54.80
30983;DHT22;17660;52.578;13.288;2023-06-14T14:48:29;24.10;54.30
30983;DHT22;17660;52.578;13.288;2023-06-14T14:50:56;24.20;54.90
30983;DHT22;17660;52.578;13.288;2023-06-14T14:53:23;24.20;55.20
30983;DHT22;17660;52.578;13.288;2023-06-14T14:55:50;24.20;54.80
30983;DHT22;17660;52.578;13.288;2023-06-14T14:58:16;24.20;55.70
30983;DHT22;17660;52.578;13.288;2023-06-14T15:00:45;24.10;55.00
30983;DHT22;17660;52.578;13.288;2023-06-14T15:03:12;24.00;55.00
30983;DHT22;17660;52.578;13.288;2023-06-14T15:05:38;24.10;54.50
30983;DHT22;17660;52.578;13.288;2023-06-14T15:08:05;24.10;54.30
30983;DHT22;17660;52.578;13.288;2023-06-14T15:10:41;24.00;54.40
30983;DHT22;17660;52.578;13.288;2023-06-14T15:13:08;23.80;54.80
30983;DHT22;17660;52.578;13.288;2023-06-14T15:15:35;23.80;55.20
30983;DHT22;17660;52.578;13.288;2023-06-14T15:18:02;23.80;55.70
30983;DHT22;17660;52.578;13.288;2023-06-14T15:20:29;23.70;54.70
30983;DHT22;17660;52.578;13.288;2023-06-14T15:22:56;23.70;56.10
30983;DHT22;17660;52.578;13.288;2023-06-14T15:25:29;23.60;54.90
30983;DHT22;17660;52.578;13.288;2023-06-14T15:27:56;23.50;55.10
30983;DHT22;17660;52.578;13.288;2023-06-14T15:30:22;23.50;55.40
30983;DHT22;17660;52.578;13.288;2023-06-14T15:32:49;23.40;55.30
30983;DHT22;17660;52.578;13.288;2023-06-14T15:35:17;23.40;56.60
30983;DHT22;17660;52.578;13.288;2023-06-14T15:37:44;23.40;55.10
30983;DHT22;17660;52.578;13.288;2023-06-14T15:40:11;23.40;55.30
30983;DHT22;17660;52.578;13.288;2023-06-14T15:42:38;23.40;56.50